Raleigh, NC (27603)

9:52 PM EDT op 30 juni 2015 (GMT -0400)
Dunhaven | | Change Station
CLOSE
Current Station
Persoonlijk weerstation
Location: Garner, NC
Geometrische hoogte: 259 ft
Nabije weerstations

Hoogte 259 ft 35.67 °N, 78.62 °W | Updated 2 minutes ago

Geheel bewolkt
Geheel bewolkt
71.8 °F
Voelt als 71.8 °F
N
4.0
Wind Variabel Wind van NW
Gusts 6.0 mijl/u

Vandaag
Hoog -- | Laag -- °F
--% Kans op neerslag
Gisteren
Hoog -- | Laag -- °F
Precip. -- inches
6:01 AM 8:34 PM
Wassende maan, 99% visible
Druk 29.88 inches
Zicht 10.0 mijlen
Wolken Gering 2500 ft
Licht bewolkt 5000 ft
Merendeels bewolkt 14000 ft
Merendeels bewolkt 20000 ft
Dauwpunt 69 °F
Vochtigheid 92%
Neerslag inches
Dikte sneeuw Niet beschikbaar.
UV 0 van de 12
Pollen 4.10 van de 12
Luchtkwaliteit Niet beschikbaar.
Flu Activity No Activity
METAR KRDU 010051Z 00000KT 10SM FEW025 SCT050 BKN140 BKN200 23/22 A2990 RMK AO2 TSE01RAE45 SLP118 OCNL LTG DSNT NE-SE P0002 T02330217 $

More Conditions Fewer Conditions

Druk 29.88 inches
Zicht 10.0 mijlen
Wolken Gering 2500 ft
Licht bewolkt 5000 ft
Merendeels bewolkt 14000 ft
Merendeels bewolkt 20000 ft
Dauwpunt 69 °F
Vochtigheid 92%
Neerslag inches
Dikte sneeuw Niet beschikbaar.
UV 0 van de 12
Pollen 4.10 van de 12
Luchtkwaliteit Niet beschikbaar.
Flu Activity No Activity
METAR KRDU 010051Z 00000KT 10SM FEW025 SCT050 BKN140 BKN200 23/22 A2990 RMK AO2 TSE01RAE45 SLP118 OCNL LTG DSNT NE-SE P0002 T02330217 $

More Conditions Fewer Conditions

10-Day Weather Forecast

×

Almanac

Astronomie

Jun. 30, 2015 Opkomst Ondergang
Werkelijke tijd
Burgerlijke schemering
Nautische schemering
Astronomische schemering
Maan
Golflengte van het zichtbare licht
Daglengte
Tomorrow will be .
, % of the Moon is Illuminated

Extremen vandaag

State Highs State Lows

Community

WunderPhotos

Upload Photos

1,834,088 foto’s ge-upload!

WunderBlogs® & News

Nearby

Luchtkwaliteit

  Luchtkwaliteit LK-index Verontreinigende stof
Not available.

Dikte sneeuw

Station Depth Geometrische hoogte

Aardbevingen

Stad Distance Mag. Time & Date
Minimum magnitude displayed is 2.5.

Watertemperatuur langs de kust

Plaats Temperatuur

Stations

Nabije weerstations

Locatie station Temp. Gevoelstemperatuur Dauwpunt Vochtigheid Wind Precip. Hoogte Geactualiseerd Type